createdAt,value
2017-10-07T00:01:08.193Z,21.9
2017-10-07T00:02:16.867Z,21.88
2017-10-07T00:03:26.195Z,21.84
2017-10-07T00:04:35.502Z,21.79
2017-10-07T00:05:44.500Z,21.9
2017-10-07T00:06:53.822Z,21.83
2017-10-07T00:08:03.116Z,21.77
2017-10-07T00:09:12.736Z,21.74
2017-10-07T00:10:22.050Z,21.79
2017-10-07T00:11:31.035Z,21.83
2017-10-07T00:12:40.653Z,21.77
2017-10-07T00:13:49.968Z,21.77
2017-10-07T00:14:58.940Z,21.88
2017-10-07T00:16:08.535Z,21.86
2017-10-07T00:17:17.827Z,21.86
2017-10-07T00:18:27.783Z,21.9
2017-10-07T00:19:37.412Z,21.84
2017-10-07T00:20:47.352Z,21.82
2017-10-07T00:21:56.361Z,21.8
2017-10-07T00:23:05.355Z,21.77
2017-10-07T00:24:14.035Z,21.82
2017-10-07T00:25:23.003Z,21.72
2017-10-07T00:26:32.011Z,21.86
2017-10-07T00:27:41.000Z,21.91
2017-10-07T00:28:49.661Z,21.86
2017-10-07T00:29:58.631Z,21.86
2017-10-07T00:31:07.310Z,21.69
2017-10-07T00:32:16.604Z,21.86
2017-10-07T00:33:25.278Z,21.71
2017-10-07T00:34:34.567Z,21.8
2017-10-07T00:35:43.235Z,21.84
2017-10-07T00:36:52.216Z,21.8
2017-10-07T00:38:01.522Z,21.79
2017-10-07T00:39:10.514Z,21.88
2017-10-07T00:40:19.803Z,21.74
2017-10-07T00:41:28.495Z,21.82
2017-10-07T00:42:37.181Z,21.86
2017-10-07T00:43:46.480Z,21.8
2017-10-07T00:44:55.144Z,21.8
2017-10-07T00:46:04.133Z,21.82
2017-10-07T00:47:12.798Z,21.91
2017-10-07T00:48:22.400Z,21.84
2017-10-07T00:49:31.396Z,21.82
2017-10-07T00:50:40.082Z,21.88
2017-10-07T00:51:48.742Z,21.88
2017-10-07T00:52:58.033Z,21.77
2017-10-07T00:54:07.044Z,21.84
2017-10-07T00:55:16.681Z,21.75
2017-10-07T00:56:25.687Z,21.79
2017-10-07T00:57:34.680Z,21.8
2017-10-07T00:58:44.014Z,21.75
2017-10-07T00:59:53.349Z,21.77
2017-10-07T01:01:02.658Z,21.82
2017-10-07T01:02:11.959Z,21.77
2017-10-07T01:03:21.585Z,21.8
2017-10-07T01:04:30.248Z,21.79
2017-10-07T01:05:38.913Z,21.8
2017-10-07T01:06:47.892Z,21.83
2017-10-07T01:07:56.894Z,21.74
2017-10-07T01:09:05.876Z,21.8
2017-10-07T01:10:15.165Z,21.8
2017-10-07T01:11:24.458Z,21.8
2017-10-07T01:12:33.124Z,21.79
2017-10-07T01:13:42.488Z,21.8
2017-10-07T01:14:51.774Z,21.82
2017-10-07T01:16:01.079Z,21.71
2017-10-07T01:17:10.058Z,21.77
2017-10-07T01:18:19.689Z,21.77
2017-10-07T01:19:28.972Z,21.8
2017-10-07T01:20:37.957Z,21.75
2017-10-07T01:21:46.933Z,21.79
2017-10-07T01:22:55.590Z,21.83
2017-10-07T01:24:04.567Z,21.79
2017-10-07T01:25:13.867Z,21.77
2017-10-07T01:26:22.853Z,21.79
2017-10-07T01:27:31.829Z,21.75
2017-10-07T01:28:41.152Z,21.8
2017-10-07T01:29:50.770Z,21.79
2017-10-07T01:30:59.754Z,21.77
2017-10-07T01:32:08.773Z,21.82
2017-10-07T01:33:17.513Z,21.77
2017-10-07T01:34:26.197Z,21.77
2017-10-07T01:35:35.180Z,21.77
2017-10-07T01:36:44.492Z,21.79
2017-10-07T01:37:53.156Z,21.72
2017-10-07T01:39:02.146Z,21.75
2017-10-07T01:40:10.831Z,21.72
2017-10-07T01:41:19.805Z,21.74
2017-10-07T01:42:29.097Z,21.72
2017-10-07T01:43:37.761Z,21.8
2017-10-07T01:44:46.433Z,21.74
2017-10-07T01:45:55.422Z,21.8
2017-10-07T01:47:04.394Z,21.8
2017-10-07T01:48:13.699Z,21.71
2017-10-07T01:49:23.004Z,21.79
2017-10-07T01:50:31.682Z,21.77
2017-10-07T01:51:40.344Z,21.74
2017-10-07T01:52:49.324Z,21.79
2017-10-07T01:53:58.014Z,21.74
2017-10-07T01:55:07.931Z,21.72
2017-10-07T01:56:16.613Z,21.74
2017-10-07T01:57:25.894Z,21.68
2017-10-07T01:58:35.210Z,21.77
2017-10-07T01:59:43.882Z,21.74
2017-10-07T02:00:53.193Z,21.75
2017-10-07T02:02:02.176Z,21.72
2017-10-07T02:03:11.160Z,21.72
2017-10-07T02:04:20.137Z,21.71
2017-10-07T02:05:29.116Z,21.74
2017-10-07T02:06:38.400Z,21.77
2017-10-07T02:07:47.396Z,21.72
2017-10-07T02:08:56.069Z,21.75
2017-10-07T02:10:05.043Z,21.67
2017-10-07T02:11:14.052Z,21.77
2017-10-07T02:12:23.027Z,21.77
2017-10-07T02:13:32.321Z,21.75
2017-10-07T02:14:41.636Z,21.71
2017-10-07T02:15:50.299Z,21.74
2017-10-07T02:16:59.296Z,21.74
2017-10-07T02:18:07.981Z,21.74
2017-10-07T02:19:17.332Z,21.71
2017-10-07T02:20:26.708Z,21.77
2017-10-07T02:21:36.034Z,21.72
2017-10-07T02:22:45.025Z,21.74
2017-10-07T02:23:53.768Z,21.75
2017-10-07T02:25:03.082Z,21.69
2017-10-07T02:26:12.364Z,21.68
2017-10-07T02:27:21.342Z,21.74
2017-10-07T02:28:30.319Z,21.74
2017-10-07T02:29:39.602Z,21.74
2017-10-07T02:30:48.257Z,21.74
2017-10-07T02:31:57.557Z,21.74
2017-10-07T02:33:06.214Z,21.64
2017-10-07T02:34:15.822Z,21.75
2017-10-07T02:35:24.821Z,21.75
2017-10-07T02:36:34.138Z,21.72
2017-10-07T02:37:43.438Z,21.71
2017-10-07T02:38:52.716Z,21.71
2017-10-07T02:40:02.038Z,21.68
2017-10-07T02:41:11.110Z,21.74
2017-10-07T02:42:20.110Z,21.79
2017-10-07T02:43:29.418Z,21.71
2017-10-07T02:44:38.066Z,21.72
2017-10-07T02:45:47.364Z,21.72
2017-10-07T02:46:56.021Z,21.69
2017-10-07T02:48:05.606Z,21.79
2017-10-07T02:49:14.899Z,21.69
2017-10-07T02:50:23.870Z,21.72
2017-10-07T02:51:33.152Z,21.67
2017-10-07T02:52:42.133Z,21.74
2017-10-07T02:53:50.786Z,21.68
2017-10-07T02:55:00.088Z,21.72
2017-10-07T02:56:09.104Z,21.77
2017-10-07T02:57:17.755Z,21.67
2017-10-07T02:58:26.732Z,21.72
2017-10-07T02:59:35.400Z,21.72
2017-10-07T03:00:44.084Z,21.75
2017-10-07T03:01:52.769Z,21.64
2017-10-07T03:03:02.054Z,21.74
2017-10-07T03:04:11.041Z,21.62
2017-10-07T03:05:20.333Z,21.71
2017-10-07T03:06:29.617Z,21.72
2017-10-07T03:07:38.904Z,21.69
2017-10-07T03:08:47.688Z,21.68
2017-10-07T03:09:56.646Z,21.69
2017-10-07T03:11:05.619Z,21.71
2017-10-07T03:12:14.595Z,21.77
2017-10-07T03:13:23.569Z,21.71
2017-10-07T03:14:32.281Z,21.79
2017-10-07T03:15:41.275Z,21.64
2017-10-07T03:16:50.241Z,21.71
2017-10-07T03:17:59.247Z,21.74
2017-10-07T03:19:08.529Z,21.74
2017-10-07T03:20:17.189Z,21.71
2017-10-07T03:21:25.851Z,21.75
2017-10-07T03:22:34.524Z,21.72
2017-10-07T03:23:43.498Z,21.68
2017-10-07T03:24:52.467Z,21.69
2017-10-07T03:26:01.450Z,21.71
2017-10-07T03:27:10.420Z,21.65
2017-10-07T03:28:19.093Z,21.68
2017-10-07T03:29:28.067Z,21.65
2017-10-07T03:30:36.736Z,21.69
2017-10-07T03:31:46.018Z,21.71
2017-10-07T03:32:55.628Z,21.65
2017-10-07T03:34:04.914Z,21.68
2017-10-07T03:35:13.596Z,21.65
2017-10-07T03:36:22.279Z,21.67
2017-10-07T03:37:30.987Z,21.62
2017-10-07T03:38:40.626Z,21.68
2017-10-07T03:39:49.274Z,21.68
2017-10-07T03:40:58.274Z,21.68
2017-10-07T03:42:07.247Z,21.68
2017-10-07T03:43:16.859Z,21.68
2017-10-07T03:44:25.832Z,21.67
2017-10-07T03:45:34.815Z,21.64
2017-10-07T03:46:44.113Z,21.67
2017-10-07T03:47:53.090Z,21.65
2017-10-07T03:49:01.759Z,21.65
2017-10-07T03:50:10.744Z,21.67
2017-10-07T03:51:20.044Z,21.64
2017-10-07T03:52:29.345Z,21.64
2017-10-07T03:53:38.325Z,21.64
2017-10-07T03:54:47.360Z,21.67
2017-10-07T03:55:56.670Z,21.64
2017-10-07T03:57:05.314Z,21.62
2017-10-07T03:58:14.298Z,21.68
2017-10-07T03:59:23.269Z,21.67
2017-10-07T04:00:33.154Z,21.65
2017-10-07T04:01:42.446Z,21.69
2017-10-07T04:02:52.059Z,21.64
2017-10-07T04:04:01.664Z,21.62
2017-10-07T04:05:10.952Z,21.65
2017-10-07T04:06:20.553Z,21.68
2017-10-07T04:07:29.840Z,21.64
2017-10-07T04:08:38.506Z,21.62
2017-10-07T04:09:47.487Z,21.67
2017-10-07T04:10:57.150Z,21.64
2017-10-07T04:12:05.810Z,21.61
2017-10-07T04:13:14.481Z,21.65
2017-10-07T04:14:23.232Z,21.62
2017-10-07T04:15:32.287Z,21.65
2017-10-07T04:16:41.284Z,21.69
2017-10-07T04:17:50.588Z,21.69
2017-10-07T04:18:59.893Z,21.71
2017-10-07T04:20:08.567Z,21.64
2017-10-07T04:21:17.549Z,21.64
2017-10-07T04:22:26.848Z,21.64
2017-10-07T04:23:35.927Z,21.64
2017-10-07T04:24:44.597Z,21.65
2017-10-07T04:25:53.577Z,21.62
2017-10-07T04:27:02.887Z,21.71
2017-10-07T04:28:11.885Z,21.62
2017-10-07T04:29:20.855Z,21.64
2017-10-07T04:30:29.821Z,21.65
2017-10-07T04:31:39.424Z,21.68
2017-10-07T04:32:48.715Z,21.62
2017-10-07T04:33:58.327Z,21.65
2017-10-07T04:35:07.298Z,21.61
2017-10-07T04:36:16.281Z,21.71
2017-10-07T04:37:25.327Z,21.64
2017-10-07T04:38:34.315Z,21.67
2017-10-07T04:39:43.301Z,21.64
2017-10-07T04:40:52.297Z,21.64
2017-10-07T04:42:01.910Z,21.68
2017-10-07T04:43:11.530Z,21.62
2017-10-07T04:44:20.820Z,21.64
2017-10-07T04:45:29.486Z,21.64
2017-10-07T04:46:38.923Z,21.68
2017-10-07T04:47:48.218Z,21.64
2017-10-07T04:48:56.873Z,21.65
2017-10-07T04:50:05.867Z,21.64
2017-10-07T04:51:15.185Z,21.61
2017-10-07T04:52:24.153Z,21.64
2017-10-07T04:53:33.151Z,21.64
2017-10-07T04:54:41.836Z,21.64
2017-10-07T04:55:50.489Z,21.61
2017-10-07T04:56:59.458Z,21.69
2017-10-07T04:58:08.442Z,21.64
2017-10-07T04:59:18.075Z,21.68
2017-10-07T05:00:26.771Z,21.61
2017-10-07T05:01:36.069Z,21.61
2017-10-07T05:02:44.754Z,21.65
2017-10-07T05:03:53.773Z,21.65
2017-10-07T05:05:03.064Z,21.65
2017-10-07T05:06:12.045Z,21.58
2017-10-07T05:07:21.030Z,21.61
2017-10-07T05:08:30.008Z,21.64
2017-10-07T05:09:38.758Z,21.62
2017-10-07T05:10:47.420Z,21.68
2017-10-07T05:11:56.414Z,21.61
2017-10-07T05:13:05.710Z,21.62
2017-10-07T05:14:15.041Z,21.61
2017-10-07T05:15:23.703Z,21.58
2017-10-07T05:16:32.676Z,21.59
2017-10-07T05:17:42.001Z,21.64
2017-10-07T05:18:51.004Z,21.62
2017-10-07T05:19:59.981Z,21.62
2017-10-07T05:21:09.119Z,21.65
2017-10-07T05:22:18.420Z,21.59
2017-10-07T05:23:27.726Z,21.61
2017-10-07T05:24:36.418Z,21.59
2017-10-07T05:25:45.736Z,21.61
2017-10-07T05:26:55.056Z,21.61
2017-10-07T05:28:04.054Z,21.61
2017-10-07T05:29:13.039Z,21.62
2017-10-07T05:30:22.333Z,21.56
2017-10-07T05:31:31.640Z,21.65
2017-10-07T05:32:40.946Z,21.67
2017-10-07T05:33:49.629Z,21.54
2017-10-07T05:34:58.673Z,21.65
2017-10-07T05:36:07.375Z,21.56
2017-10-07T05:37:16.131Z,21.56
2017-10-07T05:38:24.977Z,21.62
2017-10-07T05:39:33.644Z,21.52
2017-10-07T05:40:43.257Z,21.56
2017-10-07T05:41:52.246Z,21.59
2017-10-07T05:43:01.241Z,21.53
2017-10-07T05:44:10.235Z,21.56
2017-10-07T05:45:19.237Z,21.52
2017-10-07T05:46:27.932Z,21.61
2017-10-07T05:47:36.925Z,21.58
2017-10-07T05:48:45.910Z,21.58
2017-10-07T05:49:54.589Z,21.58
2017-10-07T05:51:03.264Z,21.65
2017-10-07T05:52:12.314Z,21.65
2017-10-07T05:53:20.978Z,21.59
2017-10-07T05:54:29.655Z,21.61
2017-10-07T05:55:39.560Z,21.59
2017-10-07T05:56:48.563Z,21.64
2017-10-07T05:57:57.542Z,21.62
2017-10-07T05:59:06.515Z,21.62
2017-10-07T06:00:15.834Z,21.53
2017-10-07T06:01:24.970Z,21.59
2017-10-07T06:02:34.607Z,21.62
2017-10-07T06:03:43.347Z,21.59
2017-10-07T06:04:52.051Z,21.69
2017-10-07T06:06:01.352Z,21.61
2017-10-07T06:07:10.340Z,21.59
2017-10-07T06:08:19.019Z,21.62
2017-10-07T06:09:28.632Z,21.69
2017-10-07T06:10:37.923Z,21.67
2017-10-07T06:11:46.928Z,21.61
2017-10-07T06:12:56.209Z,21.62
2017-10-07T06:14:05.848Z,21.61
2017-10-07T06:15:14.834Z,21.68
2017-10-07T06:16:23.605Z,21.71
2017-10-07T06:17:32.587Z,21.62
2017-10-07T06:18:42.351Z,21.67
2017-10-07T06:19:51.338Z,21.59
2017-10-07T06:21:00.020Z,21.61
2017-10-07T06:22:09.003Z,21.64
2017-10-07T06:23:18.318Z,21.68
2017-10-07T06:24:27.647Z,21.65
2017-10-07T06:25:36.343Z,21.59
2017-10-07T06:26:45.325Z,21.67
2017-10-07T06:27:54.324Z,21.64
2017-10-07T06:29:03.310Z,21.65
2017-10-07T06:30:12.311Z,21.65
2017-10-07T06:31:21.296Z,21.64
2017-10-07T06:32:30.592Z,21.64
2017-10-07T06:33:39.561Z,21.67
2017-10-07T06:34:48.858Z,21.64
2017-10-07T06:35:58.153Z,21.72
2017-10-07T06:37:07.141Z,21.69
2017-10-07T06:38:15.831Z,21.67
2017-10-07T06:39:25.744Z,21.65
2017-10-07T06:40:35.025Z,21.67
2017-10-07T06:41:44.321Z,21.74
2017-10-07T06:42:52.982Z,21.74
2017-10-07T06:44:01.970Z,21.77
2017-10-07T06:45:11.260Z,21.79
2017-10-07T06:46:20.573Z,21.71
2017-10-07T06:47:29.868Z,21.74
2017-10-07T06:48:39.500Z,21.8
2017-10-07T06:49:48.510Z,21.74
2017-10-07T06:50:57.498Z,21.75
2017-10-07T06:52:06.495Z,21.91
2017-10-07T06:53:15.146Z,21.88
2017-10-07T06:54:24.442Z,21.79
2017-10-07T06:55:34.045Z,21.9
2017-10-07T06:56:43.024Z,21.86
2017-10-07T06:57:52.027Z,21.94
2017-10-07T06:59:01.001Z,21.84
2017-10-07T07:00:09.973Z,21.91
2017-10-07T07:01:19.315Z,21.82
2017-10-07T07:02:28.606Z,21.77
2017-10-07T07:03:37.908Z,21.88
2017-10-07T07:04:47.339Z,21.92
2017-10-07T07:05:57.132Z,21.86
2017-10-07T07:07:07.268Z,21.8
2017-10-07T07:08:16.582Z,21.91
2017-10-07T07:09:26.703Z,21.84
2017-10-07T07:10:36.032Z,21.86
2017-10-07T07:11:45.345Z,21.91
2017-10-07T07:12:54.329Z,21.94
2017-10-07T07:14:03.632Z,21.9
2017-10-07T07:15:13.204Z,21.9
2017-10-07T07:16:23.727Z,21.92
2017-10-07T07:17:33.580Z,21.92
2017-10-07T07:18:42.670Z,21.88
2017-10-07T07:19:51.992Z,21.94
2017-10-07T07:21:01.741Z,21.94
2017-10-07T07:22:11.694Z,21.88
2017-10-07T07:23:20.454Z,21.91
2017-10-07T07:24:29.477Z,21.92
2017-10-07T07:25:38.143Z,21.98
2017-10-07T07:26:47.424Z,21.94
2017-10-07T07:27:56.701Z,21.88
2017-10-07T07:29:05.394Z,21.99
2017-10-07T07:30:14.736Z,21.94
2017-10-07T07:31:23.912Z,21.98
2017-10-07T07:32:33.000Z,21.96
2017-10-07T07:33:42.615Z,21.96
2017-10-07T07:34:52.278Z,22.02
2017-10-07T07:36:01.301Z,21.94
2017-10-07T07:37:10.273Z,21.98
2017-10-07T07:38:19.387Z,21.96
2017-10-07T07:39:29.062Z,22.1
2017-10-07T07:40:38.054Z,21.98
2017-10-07T07:41:47.696Z,21.99
2017-10-07T07:42:56.664Z,21.98
2017-10-07T07:44:05.419Z,21.96
2017-10-07T07:45:14.701Z,21.99
2017-10-07T07:46:23.757Z,21.98
2017-10-07T07:47:32.432Z,22.03
2017-10-07T07:48:41.109Z,21.96
2017-10-07T07:49:50.086Z,22
2017-10-07T07:50:59.073Z,21.96
2017-10-07T07:52:08.368Z,22
2017-10-07T07:53:17.698Z,21.96
2017-10-07T07:54:26.694Z,22
2017-10-07T07:55:35.698Z,21.98
2017-10-07T07:56:44.774Z,21.99
2017-10-07T07:57:54.056Z,21.98
2017-10-07T07:59:03.142Z,22.02
2017-10-07T08:00:11.808Z,21.94
2017-10-07T08:01:21.423Z,22
2017-10-07T08:02:30.397Z,21.98
2017-10-07T08:03:39.695Z,22.14
2017-10-07T08:04:48.676Z,21.99
2017-10-07T08:05:58.326Z,22
2017-10-07T08:07:07.373Z,22.03
2017-10-07T08:08:17.338Z,21.98
2017-10-07T08:09:26.041Z,22.12
2017-10-07T08:10:35.035Z,21.94
2017-10-07T08:11:44.644Z,21.92
2017-10-07T08:12:53.946Z,22.09
2017-10-07T08:14:02.941Z,21.94
2017-10-07T08:15:11.618Z,22.05
2017-10-07T08:16:20.921Z,22.02
2017-10-07T08:17:30.209Z,22.12
2017-10-07T08:18:38.890Z,22.03
2017-10-07T08:19:47.582Z,22.09
2017-10-07T08:20:56.409Z,22.1
2017-10-07T08:22:05.712Z,22.05
2017-10-07T08:23:14.724Z,22.12
2017-10-07T08:24:24.049Z,22.05
2017-10-07T08:25:32.711Z,22.15
2017-10-07T08:26:41.705Z,22.14
2017-10-07T08:27:50.673Z,22.06
2017-10-07T08:28:59.971Z,22.09
2017-10-07T08:30:08.965Z,22.05
2017-10-07T08:31:18.569Z,22.03
2017-10-07T08:32:27.866Z,22.09
2017-10-07T08:33:37.586Z,22.07
2017-10-07T08:34:46.285Z,22.07
2017-10-07T08:35:54.972Z,22.06
2017-10-07T08:37:03.970Z,22.12
2017-10-07T08:38:13.042Z,22.07
2017-10-07T08:39:22.459Z,22.06
2017-10-07T08:40:31.789Z,22.15
2017-10-07T08:41:40.774Z,22.18
2017-10-07T08:42:49.571Z,22.12
2017-10-07T08:43:58.901Z,22.18
2017-10-07T08:45:07.908Z,22.21
2017-10-07T08:46:17.050Z,22.21
2017-10-07T08:47:26.095Z,22.18
2017-10-07T08:48:35.104Z,22.2
2017-10-07T08:49:44.312Z,22.17
2017-10-07T08:50:53.458Z,22.2
2017-10-07T08:52:02.459Z,22.2
2017-10-07T08:53:11.829Z,22.25
2017-10-07T08:54:21.148Z,22.25
2017-10-07T08:55:30.226Z,22.28
2017-10-07T08:56:39.531Z,22.28
2017-10-07T08:57:48.524Z,22.3
2017-10-07T08:58:57.184Z,22.24
2017-10-07T09:00:06.831Z,22.3
2017-10-07T09:01:16.161Z,22.28
2017-10-07T09:02:25.893Z,22.31
2017-10-07T09:03:34.605Z,22.3
2017-10-07T09:04:43.651Z,22.36
2017-10-07T09:05:53.128Z,22.33
2017-10-07T09:07:02.750Z,22.35
2017-10-07T09:08:11.480Z,22.37
2017-10-07T09:09:20.520Z,22.39
2017-10-07T09:10:29.511Z,22.43
2017-10-07T09:11:39.189Z,22.43
2017-10-07T09:12:48.503Z,22.45
2017-10-07T09:13:57.845Z,22.55
2017-10-07T09:15:06.516Z,22.52
2017-10-07T09:16:16.147Z,22.58
2017-10-07T09:17:25.305Z,22.58
2017-10-07T09:18:33.980Z,22.6
2017-10-07T09:19:42.646Z,22.55
2017-10-07T09:20:51.363Z,22.52
2017-10-07T09:22:00.682Z,22.55
2017-10-07T09:23:09.364Z,22.61
2017-10-07T09:24:18.410Z,22.51
2017-10-07T09:25:27.450Z,22.6
2017-10-07T09:26:36.138Z,22.54
2017-10-07T09:27:44.796Z,22.52
2017-10-07T09:28:53.856Z,22.6
2017-10-07T09:30:02.911Z,22.57
2017-10-07T09:31:11.583Z,22.58
2017-10-07T09:32:20.245Z,22.57
2017-10-07T09:33:29.284Z,22.55
2017-10-07T09:34:38.802Z,22.39
2017-10-07T09:35:48.096Z,22.49
2017-10-07T09:36:56.863Z,22.45
2017-10-07T09:38:05.876Z,22.46
2017-10-07T09:39:15.186Z,22.43
2017-10-07T09:40:24.646Z,22.45
2017-10-07T09:41:34.052Z,22.42
2017-10-07T09:42:42.949Z,22.39
2017-10-07T09:43:52.078Z,22.39
2017-10-07T09:45:01.110Z,22.37
2017-10-07T09:46:10.112Z,22.46
2017-10-07T09:47:19.125Z,22.43
2017-10-07T09:48:27.795Z,22.54
2017-10-07T09:49:36.771Z,22.43
2017-10-07T09:50:46.231Z,22.37
2017-10-07T09:51:55.218Z,22.4
2017-10-07T09:53:04.834Z,22.42
2017-10-07T09:54:13.827Z,22.39
2017-10-07T09:55:23.764Z,22.39
2017-10-07T09:56:33.400Z,22.47
2017-10-07T09:57:42.358Z,22.47
2017-10-07T09:58:51.138Z,22.43
2017-10-07T09:59:59.834Z,22.47
2017-10-07T10:01:08.814Z,22.46
2017-10-07T10:02:17.464Z,22.43
2017-10-07T10:03:26.762Z,22.45
2017-10-07T10:04:35.425Z,22.46
2017-10-07T10:05:44.414Z,22.46
2017-10-07T10:06:53.389Z,22.47
2017-10-07T10:08:02.847Z,22.46
2017-10-07T10:09:11.841Z,22.46
2017-10-07T10:10:20.513Z,22.43
2017-10-07T10:11:29.176Z,22.45
2017-10-07T10:12:38.474Z,22.45
2017-10-07T10:13:47.788Z,22.43
2017-10-07T10:14:56.753Z,22.45
2017-10-07T10:16:05.421Z,22.45
2017-10-07T10:17:14.762Z,22.45
2017-10-07T10:18:23.413Z,22.42
2017-10-07T10:19:32.372Z,22.45
2017-10-07T10:20:41.367Z,22.46
2017-10-07T10:21:50.340Z,22.45
2017-10-07T10:22:59.329Z,22.46
2017-10-07T10:24:08.314Z,22.46
2017-10-07T10:25:17.383Z,22.42
2017-10-07T10:26:26.994Z,22.47
2017-10-07T10:27:36.015Z,22.46
2017-10-07T10:28:45.067Z,22.39
2017-10-07T10:29:54.069Z,22.39
2017-10-07T10:31:03.349Z,22.45
2017-10-07T10:32:12.350Z,22.39
2017-10-07T10:33:21.358Z,22.37
2017-10-07T10:34:30.767Z,22.43
2017-10-07T10:35:39.782Z,22.39
2017-10-07T10:36:48.851Z,22.43
2017-10-07T10:37:57.887Z,22.36
2017-10-07T10:39:06.597Z,22.4
2017-10-07T10:40:15.633Z,22.39
2017-10-07T10:41:24.366Z,22.39
2017-10-07T10:42:33.443Z,22.37
2017-10-07T10:43:42.441Z,22.39
2017-10-07T10:44:51.501Z,22.39
2017-10-07T10:46:00.886Z,22.36
2017-10-07T10:47:09.987Z,22.4
2017-10-07T10:48:18.685Z,22.35
2017-10-07T10:49:28.113Z,22.4
2017-10-07T10:50:37.264Z,22.39
2017-10-07T10:51:46.472Z,22.35
2017-10-07T10:52:56.146Z,22.36
2017-10-07T10:54:05.194Z,22.36
2017-10-07T10:55:14.256Z,22.37
2017-10-07T10:56:23.238Z,22.33
2017-10-07T10:57:32.226Z,22.37
2017-10-07T10:58:41.215Z,22.36
2017-10-07T10:59:50.497Z,22.39
2017-10-07T11:00:59.806Z,22.35
2017-10-07T11:02:08.784Z,22.35
2017-10-07T11:03:18.704Z,22.35
2017-10-07T11:04:27.380Z,22.3
2017-10-07T11:05:37.005Z,22.33
2017-10-07T11:06:46.624Z,22.27
2017-10-07T11:07:55.306Z,22.27
2017-10-07T11:09:04.631Z,22.27
2017-10-07T11:10:13.300Z,22.27
2017-10-07T11:11:22.450Z,22.28
2017-10-07T11:12:31.441Z,22.31
2017-10-07T11:13:40.128Z,22.33
2017-10-07T11:14:49.181Z,22.24
2017-10-07T11:15:57.851Z,22.22
2017-10-07T11:17:06.854Z,22.3
2017-10-07T11:18:15.871Z,22.33
2017-10-07T11:19:24.846Z,22.28
2017-10-07T11:20:33.838Z,22.27
2017-10-07T11:21:43.156Z,22.3
2017-10-07T11:22:52.126Z,22.28
2017-10-07T11:24:00.798Z,22.31
2017-10-07T11:25:09.839Z,22.21
2017-10-07T11:26:18.579Z,22.25
2017-10-07T11:27:27.575Z,22.21
2017-10-07T11:28:36.420Z,22.21
2017-10-07T11:29:45.436Z,22.24
2017-10-07T11:30:54.446Z,22.27
2017-10-07T11:32:04.088Z,22.3
2017-10-07T11:33:14.046Z,22.3
2017-10-07T11:34:23.133Z,22.33
2017-10-07T11:35:32.114Z,22.3
2017-10-07T11:36:40.888Z,22.28
2017-10-07T11:37:50.204Z,22.25
2017-10-07T11:38:59.197Z,22.25
2017-10-07T11:40:08.180Z,22.33
2017-10-07T11:41:16.986Z,22.3
2017-10-07T11:42:26.104Z,22.31
2017-10-07T11:43:35.424Z,22.3
2017-10-07T11:44:44.397Z,22.3
2017-10-07T11:45:53.717Z,22.31
2017-10-07T11:47:02.721Z,22.25
2017-10-07T11:48:11.409Z,22.3
2017-10-07T11:49:20.399Z,22.24
2017-10-07T11:50:29.399Z,22.25
2017-10-07T11:51:38.376Z,22.17
2017-10-07T11:52:47.073Z,22.25
2017-10-07T11:53:56.088Z,22.22
2017-10-07T11:55:05.093Z,22.25
2017-10-07T11:56:13.795Z,22.17
2017-10-07T11:57:22.516Z,22.28
2017-10-07T11:58:32.127Z,22.25
2017-10-07T11:59:41.420Z,22.2
2017-10-07T12:00:50.389Z,22.21
2017-10-07T12:01:59.193Z,22.18
2017-10-07T12:03:08.559Z,22.21
2017-10-07T12:04:17.647Z,22.22
2017-10-07T12:05:26.946Z,22.18
2017-10-07T12:06:36.326Z,22.2
2017-10-07T12:07:45.977Z,22.24
2017-10-07T12:08:54.814Z,22.18
2017-10-07T12:10:03.485Z,22.22
2017-10-07T12:11:12.865Z,22.21
2017-10-07T12:12:23.141Z,22.2
2017-10-07T12:13:32.125Z,22.2
2017-10-07T12:14:40.822Z,22.17
2017-10-07T12:15:49.797Z,22.18
2017-10-07T12:16:58.482Z,22.22
2017-10-07T12:18:07.146Z,22.22
2017-10-07T12:19:16.472Z,22.14
2017-10-07T12:20:25.764Z,22.22
2017-10-07T12:21:35.058Z,22.22
2017-10-07T12:22:44.376Z,22.2
2017-10-07T12:23:54.053Z,22.2
2017-10-07T12:25:03.426Z,22.18
2017-10-07T12:26:12.810Z,22.18
2017-10-07T12:27:21.795Z,22.22
2017-10-07T12:28:30.765Z,22.18
2017-10-07T12:29:40.235Z,22.24
2017-10-07T12:30:49.249Z,22.15
2017-10-07T12:31:57.910Z,22.15
2017-10-07T12:33:07.563Z,22.18
2017-10-07T12:34:16.584Z,22.14
2017-10-07T12:35:25.271Z,22.22
2017-10-07T12:36:34.275Z,22.18
2017-10-07T12:37:43.760Z,22.2
2017-10-07T12:38:52.749Z,22.21
2017-10-07T12:40:01.953Z,22.22
2017-10-07T12:41:11.747Z,22.18
2017-10-07T12:42:20.876Z,22.22
2017-10-07T12:43:29.885Z,22.24
2017-10-07T12:44:39.258Z,22.21
2017-10-07T12:45:48.281Z,22.24
2017-10-07T12:46:57.379Z,22.22
2017-10-07T12:48:06.391Z,22.14
2017-10-07T12:49:15.156Z,22.21
2017-10-07T12:50:24.783Z,22.2
2017-10-07T12:51:33.758Z,22.22
2017-10-07T12:52:42.736Z,22.18
2017-10-07T12:53:51.414Z,22.21
2017-10-07T12:55:00.711Z,22.14
2017-10-07T12:56:09.388Z,22.22
2017-10-07T12:57:18.375Z,22.24
2017-10-07T12:58:27.035Z,22.22
2017-10-07T12:59:36.335Z,22.22
2017-10-07T13:00:45.942Z,22.22
2017-10-07T13:01:55.267Z,22.2
2017-10-07T13:03:04.265Z,22.15
2017-10-07T13:04:13.261Z,22.18
2017-10-07T13:05:22.566Z,22.22
2017-10-07T13:06:31.561Z,22.18
2017-10-07T13:07:40.518Z,22.25
2017-10-07T13:08:49.797Z,22.24
2017-10-07T13:09:58.475Z,22.22
2017-10-07T13:11:08.435Z,22.14
2017-10-07T13:12:17.432Z,22.21
2017-10-07T13:13:26.116Z,22.17
2017-10-07T13:14:35.129Z,22.14
2017-10-07T13:15:44.125Z,22.27
2017-10-07T13:16:53.734Z,22.22
2017-10-07T13:18:03.177Z,22.24
2017-10-07T13:19:12.848Z,22.17
2017-10-07T13:20:21.832Z,22.27
2017-10-07T13:21:31.134Z,22.2
2017-10-07T13:22:40.121Z,22.12
2017-10-07T13:23:49.156Z,22.18
2017-10-07T13:24:57.816Z,22.14
2017-10-07T13:26:07.410Z,22.21
2017-10-07T13:27:16.692Z,22.21
2017-10-07T13:28:25.661Z,22.21
2017-10-07T13:29:34.776Z,22.22
2017-10-07T13:30:43.751Z,22.18
2017-10-07T13:31:52.404Z,22.12
2017-10-07T13:33:01.373Z,22.18
2017-10-07T13:34:10.040Z,22.1
2017-10-07T13:35:19.026Z,22.14
2017-10-07T13:36:28.317Z,22.18
2017-10-07T13:37:37.388Z,22.14
2017-10-07T13:38:46.362Z,22.12
2017-10-07T13:39:55.371Z,22.14
2017-10-07T13:41:04.655Z,22.14
2017-10-07T13:42:13.949Z,22.09
2017-10-07T13:43:23.245Z,22.14
2017-10-07T13:44:32.525Z,22.18
2017-10-07T13:45:42.456Z,22.06
2017-10-07T13:46:51.478Z,22.05
2017-10-07T13:48:01.095Z,22.09
2017-10-07T13:49:10.415Z,22.07
2017-10-07T13:50:19.411Z,22.15
2017-10-07T13:51:28.063Z,22.06
2017-10-07T13:52:37.150Z,22.09
2017-10-07T13:53:46.136Z,22.14
2017-10-07T13:54:54.808Z,22.09
2017-10-07T13:56:03.783Z,22.05
2017-10-07T13:57:13.112Z,22.03
2017-10-07T13:58:22.769Z,22.06
2017-10-07T13:59:31.450Z,22.09
2017-10-07T14:00:40.797Z,22.05
2017-10-07T14:01:49.463Z,22.06
2017-10-07T14:02:58.461Z,22.06
2017-10-07T14:04:08.070Z,22.06
2017-10-07T14:05:17.379Z,22.07
2017-10-07T14:06:26.346Z,22.07
2017-10-07T14:07:35.373Z,22.06
2017-10-07T14:08:44.085Z,22.06
2017-10-07T14:09:53.387Z,22.03
2017-10-07T14:11:02.042Z,22.07
2017-10-07T14:12:11.350Z,22.02
2017-10-07T14:13:20.979Z,22.1
2017-10-07T14:14:31.373Z,21.99
2017-10-07T14:15:40.800Z,22.05
2017-10-07T14:16:49.780Z,22.07
2017-10-07T14:17:59.090Z,22.07
2017-10-07T14:19:08.068Z,22.06
2017-10-07T14:20:16.827Z,22.1
2017-10-07T14:21:26.120Z,22.12
2017-10-07T14:22:35.743Z,22.06
2017-10-07T14:23:44.832Z,22.07
2017-10-07T14:24:53.493Z,22.03
2017-10-07T14:26:02.642Z,22.05
2017-10-07T14:27:12.874Z,22.05
2017-10-07T14:28:22.637Z,22.05
2017-10-07T14:29:32.270Z,22.05
2017-10-07T14:30:40.947Z,22.05
2017-10-07T14:31:49.939Z,22.06
2017-10-07T14:32:59.241Z,22.07
2017-10-07T14:34:08.893Z,22.06
2017-10-07T14:35:18.510Z,22.09
2017-10-07T14:36:27.511Z,22.05
2017-10-07T14:37:36.815Z,22.09
2017-10-07T14:38:46.131Z,22.1
2017-10-07T14:39:55.123Z,22.06
2017-10-07T14:41:04.107Z,22.07
2017-10-07T14:42:12.877Z,22.05
2017-10-07T14:43:22.151Z,22.02
2017-10-07T14:44:31.129Z,22.14
2017-10-07T14:45:39.788Z,22.07
2017-10-07T14:46:49.062Z,22.14
2017-10-07T14:47:58.663Z,22.06
2017-10-07T14:49:07.959Z,22.05
2017-10-07T14:50:16.614Z,22.09
2017-10-07T14:51:25.586Z,22.07
2017-10-07T14:52:34.560Z,22.09
2017-10-07T14:53:43.846Z,22.03